createdAt,value
2023-02-19T00:08:46.463Z,7.92
2023-02-19T00:19:06.481Z,7.90
2023-02-19T00:29:28.474Z,7.77
2023-02-19T00:39:41.501Z,7.76
2023-02-19T00:49:54.513Z,7.67
2023-02-19T01:00:07.535Z,7.64
2023-02-19T01:10:20.524Z,7.69
2023-02-19T01:20:40.494Z,7.62
2023-02-19T01:30:53.559Z,7.64
2023-02-19T01:41:08.854Z,7.50
2023-02-19T01:51:25.540Z,7.52
2023-02-19T02:01:38.567Z,7.63
2023-02-19T02:11:57.567Z,7.59
2023-02-19T02:22:27.556Z,7.56
2023-02-19T02:32:48.556Z,7.58
2023-02-19T02:43:05.555Z,7.54
2023-02-19T02:53:47.605Z,7.44
2023-02-19T03:04:04.573Z,7.48
2023-02-19T03:14:41.609Z,7.39
2023-02-19T03:25:20.616Z,7.49
2023-02-19T03:35:40.612Z,7.56
2023-02-19T03:45:59.662Z,7.65
2023-02-19T03:56:21.649Z,7.71
2023-02-19T04:06:37.654Z,7.69
2023-02-19T04:17:07.676Z,7.71
2023-02-19T04:27:20.663Z,7.66
2023-02-19T04:37:33.659Z,7.68
2023-02-19T04:47:46.635Z,7.72
2023-02-19T04:57:59.674Z,7.77
2023-02-19T05:08:12.646Z,7.78
2023-02-19T05:18:32.694Z,7.73
2023-02-19T05:28:45.684Z,7.81
2023-02-19T05:39:03.689Z,7.85
2023-02-19T05:49:16.696Z,7.87
2023-02-19T05:59:31.711Z,7.90
2023-02-19T06:09:44.706Z,7.93
2023-02-19T06:20:03.682Z,7.81
2023-02-19T06:30:16.750Z,7.77
2023-02-19T06:40:29.715Z,7.91
2023-02-19T06:50:42.741Z,8.02
